Time;durP1;ratioP1;P1;durP2;ratioP2;P2;SDS_P1;SDS_P2;PMS_P1;PMS_P2;Temp;Humidity;BMP_temperature;BMP_pressure;BME280_temperature;BME280_humidity;BME280_pressure;Samples;Min_cycle;Max_cycle;Signal;HPM_P1;HPM_P2
2024/04/20 00:00:44;;;;;;;7.13;3.67;;;;;;;10.16;62.47;98733.47;5097546;27;19993;-93
2024/04/20 00:03:10;;;;;;;6.18;3.30;;;;;;;10.16;62.81;98736.16;5097540;27;20008;-95
2024/04/20 00:05:38;;;;;;;6.43;3.38;;;;;;;10.15;62.72;98696.91;5097231;27;20001;-95
2024/04/20 00:08:04;;;;;;;6.60;3.40;;;;;;;10.05;62.12;98687.03;5099659;27;20003;-94
2024/04/20 00:10:29;;;;;;;8.48;3.10;;;;;;;10.15;62.28;98686.16;5100485;27;20008;-94
2024/04/20 00:12:55;;;;;;;7.50;3.25;;;;;;;10.25;61.95;98691.44;5100601;27;20008;-94
2024/04/20 00:15:21;;;;;;;5.50;3.00;;;;;;;10.21;60.96;98650.03;5100262;27;20001;-93
2024/04/20 00:17:47;;;;;;;4.03;2.92;;;;;;;10.46;60.43;98684.00;5099881;27;19997;-94
2024/04/20 00:20:12;;;;;;;4.05;2.80;;;;;;;10.28;63.14;98673.91;5100765;27;20009;-94
2024/04/20 00:22:38;;;;;;;7.13;3.03;;;;;;;10.21;63.68;98660.81;5099840;27;19997;-96
2024/04/20 00:25:04;;;;;;;6.25;3.05;;;;;;;10.01;64.75;98637.56;5099428;27;20004;-95
2024/04/20 00:27:31;;;;;;;5.10;2.45;;;;;;;9.99;65.63;98653.19;5099241;27;20005;-96
2024/04/20 00:29:56;;;;;;;5.63;2.85;;;;;;;9.82;65.98;98637.47;5100313;27;20011;-95
2024/04/20 00:32:22;;;;;;;7.03;2.58;;;;;;;10.08;66.44;98669.50;5099625;27;20008;-95
2024/04/20 00:34:53;;;;;;;8.70;5.28;;;;;;;9.82;67.40;98637.47;5099467;27;20479;-94
2024/04/20 00:37:18;;;;;;;6.75;2.60;;;;;;;9.83;67.03;98641.75;5101128;27;20041;-93
2024/04/20 00:39:44;;;;;;;5.28;2.83;;;;;;;9.98;66.85;98665.03;5098562;27;20005;-93
2024/04/20 00:42:10;;;;;;;3.90;2.65;;;;;;;9.72;67.38;98642.94;5099591;27;20001;-92
2024/04/20 00:44:35;;;;;;;3.10;2.50;;;;;;;9.64;68.37;98643.53;5098328;27;20012;-92
2024/04/20 00:47:02;;;;;;;5.82;2.63;;;;;;;9.59;67.82;98636.31;5098722;27;19998;-94
2024/04/20 00:49:33;;;;;;;4.68;3.20;;;;;;;9.49;68.14;98634.47;5098940;27;19993;-93
2024/04/20 00:51:58;;;;;;;4.22;2.90;;;;;;;9.51;68.18;98637.69;5100111;27;20012;-93
2024/04/20 00:54:28;;;;;;;3.72;2.55;;;;;;;9.63;68.07;98639.22;5098379;27;20009;-94
2024/04/20 00:56:54;;;;;;;4.15;3.15;;;;;;;9.56;68.04;98625.31;5100468;27;20433;-95
2024/04/20 00:59:21;;;;;;;4.85;2.28;;;;;;;9.31;68.71;98619.03;5099160;27;20070;-93
2024/04/20 01:01:47;;;;;;;7.88;3.70;;;;;;;9.36;68.80;98618.19;5100247;27;20008;-92
2024/04/20 01:04:15;;;;;;;4.65;3.30;;;;;;;9.31;68.49;98609.06;5099036;27;19998;-95
2024/04/20 01:06:40;;;;;;;3.55;2.45;;;;;;;9.26;67.71;98614.50;5099671;27;20009;-94
2024/04/20 01:09:06;;;;;;;2.72;2.40;;;;;;;9.37;67.94;98628.66;5098935;27;20011;-93
2024/04/20 01:11:32;;;;;;;3.60;2.67;;;;;;;9.18;68.20;98603.53;5098889;27;20309;-95
2024/04/20 01:14:02;;;;;;;3.28;2.50;;;;;;;9.30;67.36;98585.19;5098923;27;20141;-94
2024/04/20 01:16:30;;;;;;;2.55;2.25;;;;;;;9.58;66.83;98617.75;5099449;27;20001;-92
2024/04/20 01:18:56;;;;;;;6.72;2.65;;;;;;;9.33;66.53;98579.25;5099504;27;20029;-91
2024/04/20 01:21:22;;;;;;;6.20;2.42;;;;;;;9.36;67.69;98592.13;5099227;27;20001;-94
2024/04/20 01:23:52;;;;;;;5.05;2.80;;;;;;;9.30;67.60;98593.25;5098795;27;20001;-93
2024/04/20 01:26:17;;;;;;;4.60;2.78;;;;;;;9.17;68.13;98585.81;5099897;27;20044;-94
2024/04/20 01:28:43;;;;;;;3.75;2.72;;;;;;;9.18;68.20;98584.72;5099718;27;20005;-95
2024/04/20 01:31:09;;;;;;;3.85;2.92;;;;;;;9.22;67.96;98591.94;5098664;27;20008;-95
2024/04/20 01:33:34;;;;;;;5.53;2.67;;;;;;;9.17;67.87;98573.19;5098352;27;20009;-94
2024/04/20 01:36:00;;;;;;;5.35;3.10;;;;;;;9.24;68.55;98589.78;5099842;27;20014;-95
2024/04/20 01:38:26;;;;;;;5.35;3.83;;;;;;;9.12;69.43;98572.41;5099091;27;20001;-93
2024/04/20 01:40:52;;;;;;;6.78;3.05;;;;;;;9.36;69.45;98618.19;5098213;27;20021;-94
2024/04/20 01:43:19;;;;;;;6.45;3.80;;;;;;;9.20;69.38;98590.63;5098411;27;20017;-94
2024/04/20 01:45:44;;;;;;;4.00;2.88;;;;;;;9.04;70.22;98604.13;5098770;27;19993;-94
2024/04/20 01:48:11;;;;;;;5.88;3.03;;;;;;;9.17;70.58;98629.59;5097546;27;20064;-95
2024/04/20 01:50:36;;;;;;;4.43;2.55;;;;;;;9.01;70.61;98625.38;5097821;27;20009;-93
2024/04/20 01:53:03;;;;;;;7.15;3.00;;;;;;;8.99;70.42;98627.53;5097772;27;20012;-94
2024/04/20 01:55:29;;;;;;;4.55;2.90;;;;;;;8.84;70.65;98636.44;5098137;27;20005;-93
2024/04/20 01:57:54;;;;;;;7.93;3.10;;;;;;;8.76;71.15;98651.25;5097447;27;20008;-95
2024/04/20 02:00:20;;;;;;;5.90;3.00;;;;;;;8.72;71.52;98665.50;5097222;27;20005;-94
2024/04/20 02:02:46;;;;;;;4.65;2.83;;;;;;;8.79;71.39;98684.78;5097307;27;20528;-95
2024/04/20 02:05:22;;;;;;;6.00;2.97;;;;;;;8.80;71.25;98678.34;5098438;27;20013;-93
2024/04/20 02:08:04;;;;;;;4.10;2.90;;;;;;;8.94;71.08;98684.72;5096924;27;20065;-94
2024/04/20 02:10:41;;;;;;;5.22;2.67;;;;;;;8.81;70.03;98647.75;5095887;27;20065;-92
2024/04/20 02:13:06;;;;;;;5.22;3.10;;;;;;;9.06;69.52;98663.72;5098326;27;20001;-94
2024/04/20 02:15:32;;;;;;;4.20;3.28;;;;;;;8.96;68.61;98628.88;5097372;27;20085;-93
2024/04/20 02:17:57;;;;;;;5.32;3.15;;;;;;;9.02;68.78;98637.72;5097739;27;20448;-93
2024/04/20 02:20:24;;;;;;;4.50;2.90;;;;;;;9.03;67.98;98634.75;5098575;27;20009;-94
2024/04/20 02:22:51;;;;;;;4.13;3.10;;;;;;;9.04;67.92;98641.72;5098015;27;20017;-95
2024/04/20 02:25:17;;;;;;;5.57;3.10;;;;;;;9.03;68.00;98628.59;5122426;27;20004;-92
2024/04/20 02:27:42;;;;;;;3.50;2.78;;;;;;;9.14;67.89;98640.88;5097749;27;19997;-92
2024/04/20 02:30:08;;;;;;;4.53;3.13;;;;;;;9.23;67.45;98667.97;5096383;27;20009;-92
2024/04/20 02:32:34;;;;;;;4.35;2.97;;;;;;;9.12;67.81;98656.47;5097800;27;20026;-92
2024/04/20 02:35:02;;;;;;;4.70;3.35;;;;;;;9.03;67.37;98640.13;5096480;27;20043;-91
2024/04/20 02:37:28;;;;;;;4.65;3.20;;;;;;;9.28;67.25;98674.13;5097414;27;20005;-92
2024/04/20 02:39:56;;;;;;;4.38;2.78;;;;;;;9.14;66.89;98650.81;5097220;27;20016;-92
2024/04/20 02:42:22;;;;;;;4.97;3.38;;;;;;;9.25;66.90;98660.41;5149300;27;20012;-94
2024/04/20 02:44:54;;;;;;;5.68;3.05;;;;;;;9.28;66.99;98667.94;5097749;27;20005;-93
2024/04/20 02:47:19;;;;;;;5.78;3.30;;;;;;;9.20;67.05;98660.47;5097095;27;20008;-93
2024/04/20 02:49:45;;;;;;;4.15;3.00;;;;;;;9.36;67.50;98675.41;5098331;27;20009;-94
2024/04/20 02:52:11;;;;;;;4.65;3.05;;;;;;;9.43;67.19;98683.16;5097049;27;20032;-94
2024/04/20 02:54:36;;;;;;;5.45;4.05;;;;;;;9.37;66.93;98673.53;5096763;27;20005;-95
2024/04/20 02:57:06;;;;;;;4.88;3.13;;;;;;;9.41;68.21;98688.00;5096547;27;20077;-92
2024/04/20 02:59:31;;;;;;;6.70;3.00;;;;;;;9.13;68.86;98670.69;5096856;27;20001;-93
2024/04/20 03:01:58;;;;;;;5.20;3.40;;;;;;;9.16;69.91;98702.38;5123457;27;20008;-93
2024/04/20 03:04:24;;;;;;;7.25;3.00;;;;;;;8.97;70.84;98689.56;5097543;27;20033;-92
2024/04/20 03:06:50;;;;;;;4.65;3.20;;;;;;;8.72;71.18;98679.72;5097555;27;19993;-93
2024/04/20 03:09:15;;;;;;;8.60;3.53;;;;;;;8.89;71.54;98700.88;5098157;27;20004;-93
2024/04/20 03:11:41;;;;;;;5.82;3.60;;;;;;;8.78;70.97;98693.91;5098456;27;20009;-93
2024/04/20 03:14:07;;;;;;;5.65;3.10;;;;;;;8.80;71.19;98710.53;5097026;27;20008;-94
2024/04/20 03:16:33;;;;;;;4.28;2.92;;;;;;;8.87;70.69;98705.72;5097480;27;20012;-92
2024/04/20 03:18:59;;;;;;;4.20;3.22;;;;;;;8.61;70.98;98673.59;5122503;27;20070;-93
2024/04/20 03:21:25;;;;;;;6.28;3.17;;;;;;;8.68;71.00;98676.78;5096394;27;20012;-94
2024/04/20 03:23:51;;;;;;;4.50;2.97;;;;;;;8.69;71.01;98678.41;5096188;27;20013;-93
2024/04/20 03:26:17;;;;;;;8.27;4.00;;;;;;;8.95;70.46;98702.47;5122983;27;20006;-93
2024/04/20 03:28:42;;;;;;;5.10;4.00;;;;;;;8.97;70.42;98684.19;5095624;27;19997;-93
2024/04/20 03:31:08;;;;;;;6.13;4.07;;;;;;;8.98;69.94;98667.00;5096066;27;19997;-94
2024/04/20 03:33:35;;;;;;;6.32;3.70;;;;;;;9.12;70.41;98691.38;5096137;27;20001;-94
2024/04/20 03:36:00;;;;;;;8.18;4.22;;;;;;;8.88;70.83;98653.59;5097295;27;20072;-94
2024/04/20 03:38:29;;;;;;;9.60;4.60;;;;;;;8.87;71.54;98681.56;5096373;27;19993;-94
2024/04/20 03:40:55;;;;;;;8.27;3.85;;;;;;;8.73;71.69;98672.47;5097146;27;20009;-94
2024/04/20 03:43:22;;;;;;;7.47;3.80;;;;;;;8.70;72.24;98689.94;5099284;27;20005;-94
2024/04/20 03:45:53;;;;;;;8.75;4.10;;;;;;;8.47;72.43;98667.97;5099346;27;19997;-94
2024/04/20 03:48:20;;;;;;;5.55;4.25;;;;;;;8.60;72.49;98689.94;5099647;27;20351;-93
2024/04/20 03:50:53;;;;;;;11.50;4.82;;;;;;;8.56;72.69;98696.94;5100236;27;20001;-92
2024/04/20 03:53:20;;;;;;;6.50;4.75;;;;;;;8.39;72.87;98662.34;5100111;27;19997;-96
2024/04/20 03:55:47;;;;;;;7.53;4.70;;;;;;;8.41;73.18;98677.09;5125893;27;20001;-92
2024/04/20 03:58:12;;;;;;;5.53;4.32;;;;;;;8.45;72.91;98682.75;5126852;27;20001;-93
2024/04/20 04:00:38;;;;;;;8.30;4.93;;;;;;;8.39;73.22;98673.06;5099217;27;20008;-93
2024/04/20 04:03:04;;;;;;;6.22;4.80;;;;;;;8.47;72.29;98676.03;5099511;27;20051;-93
2024/04/20 04:05:30;;;;;;;7.03;5.07;;;;;;;8.61;72.39;98692.38;5098848;27;20001;-93
2024/04/20 04:07:58;;;;;;;6.63;4.40;;;;;;;8.43;72.63;98676.84;5099200;27;20078;-93
2024/04/20 04:10:24;;;;;;;6.32;4.55;;;;;;;8.45;72.13;98672.81;5098985;27;20002;-93
2024/04/20 04:12:50;;;;;;;6.20;4.50;;;;;;;8.44;72.50;98651.59;5098604;27;20333;-92
2024/04/20 04:15:16;;;;;;;10.02;5.20;;;;;;;8.58;72.28;98673.31;5098661;27;20001;-93
2024/04/20 04:17:41;;;;;;;8.23;4.22;;;;;;;8.50;72.50;98683.50;5098326;27;20080;-94
2024/04/20 04:20:07;;;;;;;8.93;4.60;;;;;;;8.60;72.68;98685.38;5099248;27;20001;-94
2024/04/20 04:22:34;;;;;;;14.68;4.90;;;;;;;8.72;72.29;98697.72;5100490;27;20001;-93
2024/04/20 04:25:00;;;;;;;6.47;4.28;;;;;;;8.77;71.81;98692.31;5099164;27;20016;-94
2024/04/20 04:27:28;;;;;;;8.98;5.25;;;;;;;8.70;71.80;98681.88;5100513;27;20461;-93
2024/04/20 04:29:55;;;;;;;11.55;4.75;;;;;;;8.73;71.70;98688.56;5100914;27;20461;-91
2024/04/20 04:32:21;;;;;;;7.90;5.35;;;;;;;8.78;71.84;98683.19;5099232;27;20008;-94
2024/04/20 04:34:49;;;;;;;10.27;4.63;;;;;;;8.90;71.39;98689.88;5098493;27;20012;-94
2024/04/20 04:37:15;;;;;;;6.07;4.32;;;;;;;8.97;70.88;98704.88;5099096;27;20447;-94
2024/04/20 04:39:40;;;;;;;7.78;4.65;;;;;;;8.99;71.13;98703.53;5098593;27;19997;-92
2024/04/20 04:42:09;;;;;;;7.18;4.72;;;;;;;8.86;71.12;98679.94;5098375;27;20008;-93
2024/04/20 04:44:37;;;;;;;11.25;4.28;;;;;;;9.12;70.42;98702.13;5099052;27;20013;-94
2024/04/20 04:47:06;;;;;;;7.88;5.32;;;;;;;9.14;70.51;98704.53;5099073;27;20005;-94
2024/04/20 04:49:32;;;;;;;8.68;5.43;;;;;;;9.08;69.82;98685.75;5099234;27;20001;-94
2024/04/20 04:51:58;;;;;;;7.63;5.00;;;;;;;9.15;69.87;98696.22;5097464;27;20013;-94
2024/04/20 04:54:24;;;;;;;8.05;5.40;;;;;;;9.26;69.56;98696.97;5097817;27;20313;-93
2024/04/20 04:56:49;;;;;;;10.20;6.45;;;;;;;9.10;69.49;98674.75;5097571;27;20001;-93
2024/04/20 04:59:17;;;;;;;7.05;5.20;;;;;;;9.31;69.39;98704.97;5097896;27;20320;-93
2024/04/20 05:01:45;;;;;;;7.80;5.18;;;;;;;9.24;68.96;98666.88;5097844;27;19997;-94
2024/04/20 05:04:11;;;;;;;10.55;5.68;;;;;;;9.36;69.05;98661.16;5099621;27;20063;-94
2024/04/20 05:06:37;;;;;;;7.70;5.30;;;;;;;9.38;69.04;98656.31;5099031;27;20013;-93
2024/04/20 05:09:03;;;;;;;7.85;4.93;;;;;;;9.52;68.35;98651.94;5099011;27;20016;-94
2024/04/20 05:11:29;;;;;;;6.70;5.15;;;;;;;9.56;68.90;98652.97;5098713;27;20001;-94
2024/04/20 05:13:55;;;;;;;6.82;5.07;;;;;;;9.68;68.13;98649.94;5099088;27;20016;-94
2024/04/20 05:16:20;;;;;;;9.70;5.18;;;;;;;9.80;68.13;98645.00;5098242;27;20301;-95
2024/04/20 05:18:49;;;;;;;10.80;5.93;;;;;;;9.73;68.36;98657.97;5099500;27;20008;-95
2024/04/20 05:21:15;;;;;;;6.43;5.10;;;;;;;9.76;69.07;98662.78;5099137;27;19993;-93
2024/04/20 05:23:43;;;;;;;13.02;6.40;;;;;;;9.77;68.45;98652.81;5098711;27;20001;-94
2024/04/20 05:26:09;;;;;;;9.43;6.03;;;;;;;9.82;68.16;98640.16;5097618;27;19990;-93
2024/04/20 05:28:35;;;;;;;9.68;6.22;;;;;;;10.02;67.47;98641.88;5097907;27;20004;-94
2024/04/20 05:31:00;;;;;;;11.25;6.18;;;;;;;9.98;67.85;98631.94;5097447;27;19993;-95
2024/04/20 05:33:26;;;;;;;10.20;7.07;;;;;;;9.88;68.20;98636.34;5098284;27;20057;-96
2024/04/20 05:35:54;;;;;;;10.52;6.60;;;;;;;9.97;67.82;98641.91;5097588;27;19997;-95
2024/04/20 05:38:20;;;;;;;15.00;7.25;;;;;;;9.96;68.42;98648.38;5097714;27;20018;-92
2024/04/20 05:40:46;;;;;;;8.98;6.70;;;;;;;10.03;68.43;98648.06;5097482;27;20448;-93
2024/04/20 05:43:11;;;;;;;13.30;7.00;;;;;;;10.17;67.70;98654.38;5124543;27;20029;-93
2024/04/20 05:45:41;;;;;;;10.88;6.57;;;;;;;10.30;67.77;98666.41;5097466;27;20005;-93
2024/04/20 05:48:06;;;;;;;15.20;7.05;;;;;;;10.21;67.22;98655.44;5100117;27;20360;-93
2024/04/20 05:50:33;;;;;;;15.52;7.85;;;;;;;10.46;67.13;98696.66;5099723;27;19997;-95
2024/04/20 05:52:59;;;;;;;20.52;6.82;;;;;;;10.57;66.48;98686.59;5124278;27;20405;-94
2024/04/20 05:55:24;;;;;;;18.45;6.80;;;;;;;10.66;66.55;98693.75;5098626;27;20011;-94
2024/04/20 05:57:53;;;;;;;9.15;6.30;;;;;;;10.63;66.17;98677.38;5100315;27;20070;-95
2024/04/20 06:00:20;;;;;;;13.25;5.80;;;;;;;10.79;66.03;98686.06;5093373;28;20013;-94
2024/04/20 06:02:52;;;;;;;9.40;5.97;;;;;;;10.90;65.60;98698.34;5068652;28;19998;-94
2024/04/20 06:05:18;;;;;;;14.63;5.82;;;;;;;10.94;65.20;98690.50;5068363;28;20074;-94
2024/04/20 06:07:48;;;;;;;7.85;5.28;;;;;;;11.08;64.57;98683.28;5067713;28;20375;-94
2024/04/20 06:10:14;;;;;;;9.00;6.00;;;;;;;11.11;64.22;98715.06;5068953;28;19998;-94
2024/04/20 06:12:42;;;;;;;9.07;5.47;;;;;;;11.13;63.88;98699.41;5067976;28;19998;-94
2024/04/20 06:15:08;;;;;;;8.82;5.65;;;;;;;11.38;63.22;98703.66;5065851;28;19994;-96
2024/04/20 06:17:33;;;;;;;12.88;5.43;;;;;;;11.40;63.08;98709.56;5068482;28;20008;-91
2024/04/20 06:20:02;;;;;;;5.65;4.75;;;;;;;11.50;62.31;98695.97;5067395;28;20048;-95
2024/04/20 06:22:28;;;;;;;8.50;5.13;;;;;;;11.49;62.37;98707.81;5067401;28;20050;-93
2024/04/20 06:24:54;;;;;;;7.82;4.95;;;;;;;11.75;61.68;98728.25;5067077;28;20013;-93
2024/04/20 06:27:20;;;;;;;6.82;4.75;;;;;;;11.85;61.08;98695.72;5067452;28;19994;-95
2024/04/20 06:29:47;;;;;;;11.27;4.93;;;;;;;12.01;60.90;98715.19;5067708;28;20430;-93
2024/04/20 06:32:24;;;;;;;9.48;5.50;;;;;;;12.09;60.63;98723.41;5093363;28;20008;-95
2024/04/20 06:34:55;;;;;;;7.15;4.72;;;;;;;12.04;60.86;98717.31;5068429;28;20358;-93
2024/04/20 06:37:23;;;;;;;6.93;3.88;;;;;;;12.26;59.85;98732.88;5067233;28;19989;-94
2024/04/20 06:39:48;;;;;;;8.35;4.78;;;;;;;12.37;59.41;98728.09;5066087;28;20002;-92
2024/04/20 06:42:17;;;;;;;10.23;7.80;;;;;;;12.39;59.45;98736.72;5066940;28;20410;-91
2024/04/20 06:45:08;;;;;;;6.22;4.80;;;;;;;12.34;59.50;98729.50;5067713;28;20002;-94
2024/04/20 06:47:37;;;;;;;6.78;4.30;;;;;;;12.46;59.56;98747.94;5098643;28;20437;-94
2024/04/20 06:50:16;;;;;;;5.50;4.03;;;;;;;12.52;59.58;98725.94;5068305;28;20002;-94
2024/04/20 06:53:02;;;;;;;9.60;5.00;;;;;;;12.47;60.20;98717.13;5072309;28;19997;-95
2024/04/20 06:58:26;;;;;;;6.63;4.72;;;;;;;12.50;59.79;98730.06;5099383;28;20002;-96
2024/04/20 07:01:00;;;;;;;8.30;4.80;;;;;;;12.45;59.96;98708.53;5068200;28;20001;-94
2024/04/20 07:03:29;;;;;;;5.82;4.93;;;;;;;12.38;60.76;98718.91;5068012;28;20002;-95
2024/04/20 07:05:55;;;;;;;7.13;5.10;;;;;;;12.36;60.71;98713.00;5066278;28;20017;-95
2024/04/20 07:08:22;;;;;;;9.05;5.85;;;;;;;12.30;60.75;98715.00;5069260;28;19997;-95
2024/04/20 07:11:06;;;;;;;8.02;5.90;;;;;;;12.47;60.61;98733.34;5068185;28;20009;-96
2024/04/20 07:13:37;;;;;;;7.95;6.28;;;;;;;12.50;60.23;98721.94;5069531;28;20001;-95
2024/04/20 07:16:03;;;;;;;12.45;6.63;;;;;;;12.57;60.51;98718.84;5041328;28;20017;-96
2024/04/20 07:18:29;;;;;;;8.70;6.47;;;;;;;12.73;60.33;98725.59;5092317;27;20005;-94
2024/04/20 07:21:24;;;;;;;9.75;6.47;;;;;;;12.75;60.14;98712.59;5093256;28;20005;-96
2024/04/20 07:23:56;;;;;;;7.55;5.68;;;;;;;13.07;58.77;98717.09;5096165;28;19997;-94
2024/04/20 07:26:22;;;;;;;7.80;5.57;;;;;;;13.06;59.38;98709.28;5093653;28;20008;-95
2024/04/20 07:28:52;;;;;;;7.93;5.50;;;;;;;13.02;59.30;98692.88;5066883;28;20002;-95
2024/04/20 07:31:30;;;;;;;8.73;4.70;;;;;;;12.76;59.90;98691.75;5073695;28;20005;-96
2024/04/20 07:33:59;;;;;;;6.05;4.57;;;;;;;12.94;59.16;98688.97;5094310;28;20349;-94
2024/04/20 07:36:28;;;;;;;7.45;5.25;;;;;;;13.10;58.70;98702.97;5069481;28;20418;-95
2024/04/20 07:39:11;;;;;;;;;;;;;;;;;;;;;
2024/04/20 07:42:06;;;;;;;7.50;4.90;;;;;;;13.31;58.36;98692.56;5076687;28;20009;-95
2024/04/20 07:44:37;;;;;;;6.32;4.80;;;;;;;13.54;57.03;98712.34;5099411;28;20043;-95
2024/04/20 07:47:04;;;;;;;5.97;4.47;;;;;;;13.58;56.94;98709.84;5068092;28;20033;-95
2024/04/20 07:49:42;;;;;;;6.07;4.20;;;;;;;13.45;56.72;98689.06;5042034;28;20010;-96
2024/04/20 07:52:07;;;;;;;5.70;4.18;;;;;;;13.59;56.91;98724.16;5044621;28;20016;-95
2024/04/20 07:54:39;;;;;;;4.68;3.72;;;;;;;13.52;56.82;98719.97;5069037;28;20089;-93
2024/04/20 07:57:05;;;;;;;4.53;3.83;;;;;;;13.53;56.06;98710.75;5069912;28;20002;-94
2024/04/20 08:02:44;;;;;;;4.75;4.03;;;;;;;13.53;55.98;98712.69;5065297;28;20031;-94
2024/04/20 08:05:27;;;;;;;7.43;3.95;;;;;;;13.54;56.80;98725.88;5066578;28;20327;-96
2024/04/20 08:14:59;;;;;;;4.90;3.72;;;;;;;14.03;54.71;98728.84;4949905;28;20006;-96
2024/04/20 08:17:26;;;;;;;5.03;3.47;;;;;;;13.84;55.32;98711.97;4970406;28;20004;-94
2024/04/20 08:20:01;;;;;;;4.68;3.80;;;;;;;13.99;54.94;98718.94;5040100;28;20022;-95
2024/04/20 08:26:37;;;;;;;;;;;;;;;;;;;;;
2024/04/20 08:29:31;;;;;;;9.68;3.88;;;;;;;14.04;54.71;98729.63;5001364;28;20472;-96
2024/04/20 08:34:54;;;;;;;;;;;;;;;;;;;;;
2024/04/20 08:37:55;;;;;;;;;;;;;;;;;;;;;
2024/04/20 08:41:20;;;;;;;5.93;3.80;;;;;;;14.40;52.03;98705.22;5070080;28;20010;-96
2024/04/20 08:44:45;;;;;;;;;;;;;;;;;;;;;
2024/04/20 08:48:09;;;;;;;;;;;;;;;;;;;;;
2024/04/20 08:55:01;;;;;;;;;;;;;;;;;;;;;
2024/04/20 09:04:11;;;;;;;6.07;4.03;;;;;;;14.67;50.71;98669.03;5009596;28;20375;-96
2024/04/20 09:06:51;;;;;;;6.10;3.63;;;;;;;14.69;51.93;98679.53;4985941;28;20007;-96
2024/04/20 09:09:30;;;;;;;;;;;;;;;;;;;;;
2024/04/20 09:12:04;;;;;;;4.47;3.63;;;;;;;14.72;50.50;98682.44;5150895;27;20350;-96
2024/04/20 09:14:49;;;;;;;7.05;3.30;;;;;;;14.75;49.89;98660.13;5140337;27;20000;-96
2024/04/20 09:17:45;;;;;;;4.20;3.13;;;;;;;14.87;48.75;98658.72;5131575;27;20001;-94
2024/04/20 09:20:32;;;;;;;4.90;3.20;;;;;;;14.82;49.98;98656.19;5106933;27;19993;-95
2024/04/20 09:23:05;;;;;;;6.07;3.58;;;;;;;14.92;50.08;98678.38;5101357;27;20107;-95
2024/04/20 09:26:31;;;;;;;;;;;;;;;;;;;;;
2024/04/20 09:34:55;;;;;;;5.53;3.58;;;;;;;15.40;49.65;98656.91;5259404;27;19999;-96
2024/04/20 09:37:32;;;;;;;4.45;3.38;;;;;;;15.27;49.54;98656.75;5162572;27;20023;-96
2024/04/20 09:39:58;;;;;;;4.28;3.15;;;;;;;15.20;48.91;98650.19;5160150;27;20071;-96
2024/04/20 09:43:19;;;;;;;4.85;3.20;;;;;;;15.40;48.56;98673.19;5132665;27;20416;-96
2024/04/20 09:48:29;;;;;;;5.90;3.47;;;;;;;15.26;49.12;98638.09;5352076;22;20044;-95
2024/04/20 09:54:56;;;;;;;5.00;2.95;;;;;;;15.51;48.54;98628.34;5058145;28;20083;-95
2024/04/20 09:57:38;;;;;;;4.07;2.80;;;;;;;15.62;48.17;98626.13;5192529;27;20075;-95
2024/04/20 10:00:10;;;;;;;3.55;2.70;;;;;;;15.69;46.89;98619.09;5143050;27;20000;-94
2024/04/20 10:02:36;;;;;;;;;;;;;;;15.96;46.36;98638.91;5139930;27;19996;-95
2024/04/20 10:05:04;;;;;;;3.70;2.50;;;;;;;15.85;46.30;98613.19;5163615;27;19935;-96
2024/04/20 10:07:36;;;;;;;3.40;2.50;;;;;;;15.76;46.87;98610.50;5137198;27;20003;-93
2024/04/20 10:10:03;;;;;;;3.50;2.28;;;;;;;15.74;47.03;98610.81;5138862;27;20004;-93
2024/04/20 10:12:29;;;;;;;4.80;2.75;;;;;;;15.89;46.97;98627.72;5136342;27;20007;-95
2024/04/20 10:15:00;;;;;;;6.10;2.17;;;;;;;15.82;44.42;98617.34;5163590;27;20000;-95
2024/04/20 10:17:26;;;;;;;3.63;1.88;;;;;;;15.66;45.08;98611.59;5136683;27;20318;-94
2024/04/20 10:19:52;;;;;;;2.65;1.70;;;;;;;15.82;42.85;98636.34;5135516;27;19999;-93
2024/04/20 10:22:23;;;;;;;4.20;1.77;;;;;;;15.72;43.93;98617.69;5163719;27;20010;-94
2024/04/20 10:24:58;;;;;;;2.50;1.65;;;;;;;15.85;43.97;98638.41;5136012;27;20024;-95
2024/04/20 10:27:30;;;;;;;2.08;1.73;;;;;;;15.80;44.12;98606.03;5137638;27;20047;-95
2024/04/20 10:30:07;;;;;;;3.25;1.50;;;;;;;15.72;43.21;98604.09;5135587;27;20010;-94
2024/04/20 10:32:32;;;;;;;2.60;1.65;;;;;;;15.78;43.24;98619.13;5161827;27;20014;-94
2024/04/20 10:35:06;;;;;;;2.15;1.92;;;;;;;15.75;43.18;98617.06;5164099;27;20326;-95
2024/04/20 10:37:32;;;;;;;2.85;1.90;;;;;;;15.54;43.33;98609.53;5135004;27;20015;-94
2024/04/20 10:40:34;;;;;;;3.55;1.60;;;;;;;15.57;43.79;98611.59;5135814;27;19996;-95
2024/04/20 10:43:22;;;;;;;4.00;1.73;;;;;;;15.41;44.95;98598.84;5138928;27;20007;-95
2024/04/20 10:46:04;;;;;;;2.75;1.70;;;;;;;15.34;45.69;98610.97;5136082;27;19998;-95
2024/04/20 10:48:40;;;;;;;2.55;1.60;;;;;;;15.33;45.87;98624.84;5162634;27;20003;-95
2024/04/20 10:51:20;;;;;;;2.60;1.98;;;;;;;15.41;45.74;98615.91;5139289;27;19996;-96
2024/04/20 10:53:59;;;;;;;3.22;1.80;;;;;;;15.25;45.05;98596.63;5141103;27;20003;-95
2024/04/20 10:56:25;;;;;;;4.50;1.80;;;;;;;15.49;45.13;98609.69;5136093;27;20027;-95
2024/04/20 10:58:50;;;;;;;1.95;1.38;;;;;;;15.51;44.74;98618.28;5164823;27;20000;-96
2024/04/20 11:01:25;;;;;;;5.03;1.70;;;;;;;15.28;43.54;98595.16;5137029;27;20004;-96
2024/04/20 11:03:58;;;;;;;4.47;1.70;;;;;;;15.36;44.16;98597.88;5165112;27;20011;-96
2024/04/20 11:06:24;;;;;;;2.58;1.63;;;;;;;15.46;44.20;98613.03;5163241;27;20075;-96
2024/04/20 11:08:50;;;;;;;2.13;1.52;;;;;;;15.51;43.51;98598.50;5162588;27;20004;-96
2024/04/20 11:11:16;;;;;;;1.85;1.45;;;;;;;15.59;42.90;98602.34;5163313;27;20010;-92
2024/04/20 11:13:44;;;;;;;2.30;1.60;;;;;;;15.70;42.46;98612.53;5162689;27;19996;-95
2024/04/20 11:16:13;;;;;;;4.35;1.98;;;;;;;15.82;42.61;98598.34;5137871;27;19999;-93
2024/04/20 11:18:42;;;;;;;1.92;1.52;;;;;;;15.71;41.45;98595.16;5163175;27;19992;-92
2024/04/20 11:21:08;;;;;;;2.13;1.55;;;;;;;15.77;41.51;98606.66;5163390;27;20044;-95
2024/04/20 11:23:34;;;;;;;2.63;1.30;;;;;;;15.63;38.20;98597.88;5138305;27;20008;-95
2024/04/20 11:26:00;;;;;;;2.95;1.88;;;;;;;15.74;39.58;98599.94;5164099;27;20032;-95
2024/04/20 11:28:30;;;;;;;1.80;1.30;;;;;;;15.70;38.19;98601.69;5135923;27;20003;-94
2024/04/20 11:30:57;;;;;;;1.50;1.10;;;;;;;15.78;38.95;98591.97;5136146;27;20020;-94
2024/04/20 11:33:26;;;;;;;2.40;1.45;;;;;;;16.05;39.39;98587.28;5164062;27;20000;-95
2024/04/20 11:35:52;;;;;;;1.65;1.20;;;;;;;15.96;39.36;98598.97;5163364;27;20004;-94
2024/04/20 11:38:20;;;;;;;1.75;1.20;;;;;;;16.00;38.61;98596.41;5135226;27;19996;-94
2024/04/20 11:41:00;;;;;;;5.35;1.92;;;;;;;16.28;38.83;98599.50;5134570;27;20299;-95
2024/04/20 11:43:42;;;;;;;2.40;1.40;;;;;;;16.45;38.41;98617.66;5158266;27;20081;-96
2024/04/20 11:46:12;;;;;;;3.35;1.30;;;;;;;16.44;37.93;98601.69;5163451;27;20003;-95
2024/04/20 11:48:46;;;;;;;2.00;1.30;;;;;;;16.35;37.11;98593.56;5136403;27;20104;-93
2024/04/20 11:54:20;;;;;;;;;;;;;;;16.39;37.86;98610.00;5174591;27;20015;-94
2024/04/20 11:56:47;;;;;;;1.77;1.17;;;;;;;16.42;38.28;98601.22;5165738;27;19929;-94
2024/04/20 11:59:15;;;;;;;1.30;1.20;;;;;;;16.34;38.07;98581.09;5134178;27;20047;-95
2024/04/20 12:01:44;;;;;;;1.77;1.30;;;;;;;16.57;37.60;98612.31;5135769;27;20011;-93
2024/04/20 12:04:14;;;;;;;1.45;1.20;;;;;;;16.35;37.56;98593.56;5139656;27;20012;-94
2024/04/20 12:06:41;;;;;;;2.47;1.70;;;;;;;16.22;37.65;98594.56;5165917;27;20407;-94
2024/04/20 12:09:07;;;;;;;4.22;1.38;;;;;;;16.20;37.42;98588.66;5138987;27;20328;-94
2024/04/20 12:11:39;;;;;;;1.30;1.15;;;;;;;16.07;37.74;98591.25;5164565;27;19991;-94
2024/04/20 12:14:09;;;;;;;1.65;1.27;;;;;;;16.02;38.47;98599.59;5162537;27;20051;-95
2024/04/20 12:16:38;;;;;;;1.88;1.30;;;;;;;15.84;39.22;98617.03;5141297;27;19991;-93
2024/04/20 12:19:06;;;;;;;1.50;1.25;;;;;;;15.87;38.76;98633.47;5163744;27;20004;-94
2024/04/20 12:21:32;;;;;;;1.85;1.10;;;;;;;15.72;39.03;98632.03;5138146;27;20007;-95
2024/04/20 12:24:00;;;;;;;2.30;1.20;;;;;;;15.71;39.46;98638.56;5165263;27;20008;-94
2024/04/20 12:26:26;;;;;;;3.70;1.52;;;;;;;15.92;38.99;98646.88;5163429;27;20284;-96
2024/04/20 12:28:57;;;;;;;1.52;1.20;;;;;;;15.82;38.81;98643.72;5164177;27;20011;-96
2024/04/20 12:31:25;;;;;;;2.28;1.30;;;;;;;15.65;39.54;98636.34;5136602;27;20004;-93
2024/04/20 12:33:55;;;;;;;1.70;1.10;;;;;;;15.45;40.09;98654.84;5163880;27;20004;-94
2024/04/20 12:36:21;;;;;;;3.72;1.38;;;;;;;15.31;40.29;98646.06;5191206;27;20051;-94
2024/04/20 12:38:46;;;;;;;4.28;1.50;;;;;;;15.52;40.32;98671.47;5164735;27;20035;-95
2024/04/20 12:41:22;;;;;;;1.58;1.15;;;;;;;15.16;41.26;98641.88;5163551;27;20442;-96
2024/04/20 12:43:56;;;;;;;1.50;1.00;;;;;;;15.21;41.17;98657.19;5169639;27;20306;-96
2024/04/20 12:46:23;;;;;;;5.63;1.80;;;;;;;15.24;41.74;98662.00;5141318;27;20000;-95
2024/04/20 12:48:48;;;;;;;1.80;1.20;;;;;;;15.34;41.43;98659.00;5138805;27;20000;-95